sensor_id;sensor_type;location;lat;lon;timestamp;temperature;humidity
5176;DHT22;2607;50.934;6.934;2023-07-13T00:01:12;19.60;82.50
5176;DHT22;2607;50.934;6.934;2023-07-13T00:03:37;19.60;83.10
5176;DHT22;2607;50.934;6.934;2023-07-13T00:06:03;19.50;83.40
5176;DHT22;2607;50.934;6.934;2023-07-13T00:08:31;19.50;83.80
5176;DHT22;2607;50.934;6.934;2023-07-13T00:10:58;19.50;84.20
5176;DHT22;2607;50.934;6.934;2023-07-13T00:13:23;19.50;84.60
5176;DHT22;2607;50.934;6.934;2023-07-13T00:15:49;19.50;84.80
5176;DHT22;2607;50.934;6.934;2023-07-13T00:18:15;19.50;85.10
5176;DHT22;2607;50.934;6.934;2023-07-13T00:20:40;19.50;85.30
5176;DHT22;2607;50.934;6.934;2023-07-13T00:23:07;19.50;85.50
5176;DHT22;2607;50.934;6.934;2023-07-13T00:25:32;19.40;85.60
5176;DHT22;2607;50.934;6.934;2023-07-13T00:27:58;19.40;85.60
5176;DHT22;2607;50.934;6.934;2023-07-13T00:30:24;19.40;85.50
5176;DHT22;2607;50.934;6.934;2023-07-13T00:32:51;19.40;85.90
5176;DHT22;2607;50.934;6.934;2023-07-13T00:35:16;19.40;86.20
5176;DHT22;2607;50.934;6.934;2023-07-13T00:37:42;19.30;86.30
5176;DHT22;2607;50.934;6.934;2023-07-13T00:40:10;19.30;86.50
5176;DHT22;2607;50.934;6.934;2023-07-13T00:42:37;19.30;86.70
5176;DHT22;2607;50.934;6.934;2023-07-13T00:47:37;19.20;87.10
5176;DHT22;2607;50.934;6.934;2023-07-13T00:50:05;19.20;87.30
5176;DHT22;2607;50.934;6.934;2023-07-13T00:52:31;19.10;87.40
5176;DHT22;2607;50.934;6.934;2023-07-13T00:54:57;19.10;87.70
5176;DHT22;2607;50.934;6.934;2023-07-13T00:57:24;19.10;88.00
5176;DHT22;2607;50.934;6.934;2023-07-13T00:59:53;19.00;88.40
5176;DHT22;2607;50.934;6.934;2023-07-13T01:02:19;19.00;88.90
5176;DHT22;2607;50.934;6.934;2023-07-13T01:04:47;18.90;89.10
5176;DHT22;2607;50.934;6.934;2023-07-13T01:07:12;18.90;89.40
5176;DHT22;2607;50.934;6.934;2023-07-13T01:09:38;18.90;89.60
5176;DHT22;2607;50.934;6.934;2023-07-13T01:12:04;18.90;90.00
5176;DHT22;2607;50.934;6.934;2023-07-13T01:14:30;18.80;90.10
5176;DHT22;2607;50.934;6.934;2023-07-13T01:16:55;18.80;90.30
5176;DHT22;2607;50.934;6.934;2023-07-13T01:19:37;18.80;90.40
5176;DHT22;2607;50.934;6.934;2023-07-13T01:22:11;18.70;90.50
5176;DHT22;2607;50.934;6.934;2023-07-13T01:24:40;18.70;90.70
5176;DHT22;2607;50.934;6.934;2023-07-13T01:27:07;18.70;90.80
5176;DHT22;2607;50.934;6.934;2023-07-13T01:29:35;18.70;91.00
5176;DHT22;2607;50.934;6.934;2023-07-13T01:32:16;18.70;91.10
5176;DHT22;2607;50.934;6.934;2023-07-13T01:34:42;18.70;91.20
5176;DHT22;2607;50.934;6.934;2023-07-13T01:37:11;18.70;91.30
5176;DHT22;2607;50.934;6.934;2023-07-13T01:39:37;18.70;91.30
5176;DHT22;2607;50.934;6.934;2023-07-13T01:42:03;18.60;91.40
5176;DHT22;2607;50.934;6.934;2023-07-13T01:44:29;18.60;91.50
5176;DHT22;2607;50.934;6.934;2023-07-13T01:46:55;18.60;91.50
5176;DHT22;2607;50.934;6.934;2023-07-13T01:49:20;18.60;91.60
5176;DHT22;2607;50.934;6.934;2023-07-13T01:51:46;18.60;91.80
5176;DHT22;2607;50.934;6.934;2023-07-13T01:54:11;18.50;91.90
5176;DHT22;2607;50.934;6.934;2023-07-13T01:56:37;18.50;92.10
5176;DHT22;2607;50.934;6.934;2023-07-13T01:59:03;18.50;92.20
5176;DHT22;2607;50.934;6.934;2023-07-13T02:01:28;18.40;92.40
5176;DHT22;2607;50.934;6.934;2023-07-13T02:03:54;18.40;92.50
5176;DHT22;2607;50.934;6.934;2023-07-13T02:06:19;18.40;92.80
5176;DHT22;2607;50.934;6.934;2023-07-13T02:08:45;18.40;93.00
5176;DHT22;2607;50.934;6.934;2023-07-13T02:11:11;18.30;93.00
5176;DHT22;2607;50.934;6.934;2023-07-13T02:13:36;18.30;93.10
5176;DHT22;2607;50.934;6.934;2023-07-13T02:16:02;18.30;93.20
5176;DHT22;2607;50.934;6.934;2023-07-13T02:18:27;18.30;93.30
5176;DHT22;2607;50.934;6.934;2023-07-13T02:20:53;18.30;93.40
5176;DHT22;2607;50.934;6.934;2023-07-13T02:23:18;18.30;93.30
5176;DHT22;2607;50.934;6.934;2023-07-13T02:25:45;18.30;93.30
5176;DHT22;2607;50.934;6.934;2023-07-13T02:28:10;18.30;93.50
5176;DHT22;2607;50.934;6.934;2023-07-13T02:30:36;18.30;93.50
5176;DHT22;2607;50.934;6.934;2023-07-13T02:33:01;18.30;93.60
5176;DHT22;2607;50.934;6.934;2023-07-13T02:35:27;18.30;93.50
5176;DHT22;2607;50.934;6.934;2023-07-13T02:37:53;18.30;93.60
5176;DHT22;2607;50.934;6.934;2023-07-13T02:40:18;18.30;93.70
5176;DHT22;2607;50.934;6.934;2023-07-13T02:42:44;18.30;93.80
5176;DHT22;2607;50.934;6.934;2023-07-13T02:45:10;18.20;93.80
5176;DHT22;2607;50.934;6.934;2023-07-13T02:47:36;18.20;93.90
5176;DHT22;2607;50.934;6.934;2023-07-13T02:50:02;18.20;93.90
5176;DHT22;2607;50.934;6.934;2023-07-13T02:52:27;18.20;94.00
5176;DHT22;2607;50.934;6.934;2023-07-13T02:54:53;18.20;94.00
5176;DHT22;2607;50.934;6.934;2023-07-13T02:57:18;18.20;94.10
5176;DHT22;2607;50.934;6.934;2023-07-13T02:59:44;18.20;94.10
5176;DHT22;2607;50.934;6.934;2023-07-13T03:02:10;18.20;94.10
5176;DHT22;2607;50.934;6.934;2023-07-13T03:04:36;18.10;94.10
5176;DHT22;2607;50.934;6.934;2023-07-13T03:07:03;18.10;94.30
5176;DHT22;2607;50.934;6.934;2023-07-13T03:09:29;18.10;94.40
5176;DHT22;2607;50.934;6.934;2023-07-13T03:11:55;18.10;94.40
5176;DHT22;2607;50.934;6.934;2023-07-13T03:14:23;18.10;94.40
5176;DHT22;2607;50.934;6.934;2023-07-13T03:16:49;18.10;94.40
5176;DHT22;2607;50.934;6.934;2023-07-13T03:19:14;18.10;94.50
5176;DHT22;2607;50.934;6.934;2023-07-13T03:21:40;18.10;94.50
5176;DHT22;2607;50.934;6.934;2023-07-13T03:24:06;18.10;94.60
5176;DHT22;2607;50.934;6.934;2023-07-13T03:26:31;18.00;94.60
5176;DHT22;2607;50.934;6.934;2023-07-13T03:28:57;18.00;94.70
5176;DHT22;2607;50.934;6.934;2023-07-13T03:31:25;18.00;94.70
5176;DHT22;2607;50.934;6.934;2023-07-13T03:33:52;18.00;94.70
5176;DHT22;2607;50.934;6.934;2023-07-13T03:36:22;18.00;94.70
5176;DHT22;2607;50.934;6.934;2023-07-13T03:38:54;17.90;94.70
5176;DHT22;2607;50.934;6.934;2023-07-13T03:41:20;17.90;94.80
5176;DHT22;2607;50.934;6.934;2023-07-13T03:43:46;17.90;94.80
5176;DHT22;2607;50.934;6.934;2023-07-13T03:46:15;17.80;94.80
5176;DHT22;2607;50.934;6.934;2023-07-13T03:48:43;17.80;94.90
5176;DHT22;2607;50.934;6.934;2023-07-13T03:51:10;17.80;94.80
5176;DHT22;2607;50.934;6.934;2023-07-13T03:53:39;17.80;95.00
5176;DHT22;2607;50.934;6.934;2023-07-13T03:56:05;17.70;95.00
5176;DHT22;2607;50.934;6.934;2023-07-13T03:58:37;17.70;95.20
5176;DHT22;2607;50.934;6.934;2023-07-13T04:01:05;17.70;95.30
5176;DHT22;2607;50.934;6.934;2023-07-13T04:03:31;17.70;95.40
5176;DHT22;2607;50.934;6.934;2023-07-13T04:06:02;17.70;95.50
5176;DHT22;2607;50.934;6.934;2023-07-13T04:08:29;17.70;95.70
5176;DHT22;2607;50.934;6.934;2023-07-13T04:10:56;17.70;95.70
5176;DHT22;2607;50.934;6.934;2023-07-13T04:13:22;17.70;95.80
5176;DHT22;2607;50.934;6.934;2023-07-13T04:15:48;17.70;96.00
5176;DHT22;2607;50.934;6.934;2023-07-13T04:18:14;17.70;96.10
5176;DHT22;2607;50.934;6.934;2023-07-13T04:20:39;17.70;96.20
5176;DHT22;2607;50.934;6.934;2023-07-13T04:23:05;17.70;96.30
5176;DHT22;2607;50.934;6.934;2023-07-13T04:25:30;17.80;96.40
5176;DHT22;2607;50.934;6.934;2023-07-13T04:27:56;17.80;96.40
5176;DHT22;2607;50.934;6.934;2023-07-13T04:30:22;17.80;96.50
5176;DHT22;2607;50.934;6.934;2023-07-13T04:32:49;17.80;96.70
5176;DHT22;2607;50.934;6.934;2023-07-13T04:35:15;17.80;96.70
5176;DHT22;2607;50.934;6.934;2023-07-13T04:37:40;17.80;96.80
5176;DHT22;2607;50.934;6.934;2023-07-13T04:40:06;17.80;96.90
5176;DHT22;2607;50.934;6.934;2023-07-13T04:42:35;17.80;97.30
5176;DHT22;2607;50.934;6.934;2023-07-13T04:45:00;17.80;97.20
5176;DHT22;2607;50.934;6.934;2023-07-13T04:47:26;17.80;97.30
5176;DHT22;2607;50.934;6.934;2023-07-13T04:49:51;17.80;97.40
5176;DHT22;2607;50.934;6.934;2023-07-13T04:52:17;17.80;97.40
5176;DHT22;2607;50.934;6.934;2023-07-13T04:54:43;17.80;97.50
5176;DHT22;2607;50.934;6.934;2023-07-13T04:57:08;17.80;97.60
5176;DHT22;2607;50.934;6.934;2023-07-13T04:59:34;17.80;97.50
5176;DHT22;2607;50.934;6.934;2023-07-13T05:02:00;17.80;97.50
5176;DHT22;2607;50.934;6.934;2023-07-13T05:04:26;17.80;97.70
5176;DHT22;2607;50.934;6.934;2023-07-13T05:06:52;17.80;97.70
5176;DHT22;2607;50.934;6.934;2023-07-13T05:09:17;17.80;97.70
5176;DHT22;2607;50.934;6.934;2023-07-13T05:11:43;17.80;97.90
5176;DHT22;2607;50.934;6.934;2023-07-13T05:14:09;17.80;97.90
5176;DHT22;2607;50.934;6.934;2023-07-13T05:16:35;17.80;98.00
5176;DHT22;2607;50.934;6.934;2023-07-13T05:19:01;17.80;98.30
5176;DHT22;2607;50.934;6.934;2023-07-13T05:21:27;17.90;98.40
5176;DHT22;2607;50.934;6.934;2023-07-13T05:23:52;17.90;98.30
5176;DHT22;2607;50.934;6.934;2023-07-13T05:26:18;17.90;98.50
5176;DHT22;2607;50.934;6.934;2023-07-13T05:28:44;17.90;98.60
5176;DHT22;2607;50.934;6.934;2023-07-13T05:31:10;18.00;98.70
5176;DHT22;2607;50.934;6.934;2023-07-13T05:33:35;18.00;98.70
5176;DHT22;2607;50.934;6.934;2023-07-13T05:36:01;18.00;98.80
5176;DHT22;2607;50.934;6.934;2023-07-13T05:38:28;18.00;98.80
5176;DHT22;2607;50.934;6.934;2023-07-13T05:40:54;18.10;99.00
5176;DHT22;2607;50.934;6.934;2023-07-13T05:43:21;18.10;98.90
5176;DHT22;2607;50.934;6.934;2023-07-13T05:45:47;18.10;99.10
5176;DHT22;2607;50.934;6.934;2023-07-13T05:48:13;18.20;99.00
5176;DHT22;2607;50.934;6.934;2023-07-13T05:50:38;18.30;99.10
5176;DHT22;2607;50.934;6.934;2023-07-13T05:53:04;18.30;98.90
5176;DHT22;2607;50.934;6.934;2023-07-13T05:55:30;18.40;99.00
5176;DHT22;2607;50.934;6.934;2023-07-13T05:57:56;18.40;98.90
5176;DHT22;2607;50.934;6.934;2023-07-13T06:00:23;18.50;99.00
5176;DHT22;2607;50.934;6.934;2023-07-13T06:02:49;18.50;99.10
5176;DHT22;2607;50.934;6.934;2023-07-13T06:05:15;18.50;99.10
5176;DHT22;2607;50.934;6.934;2023-07-13T06:07:41;18.50;98.90
5176;DHT22;2607;50.934;6.934;2023-07-13T06:10:07;18.60;99.00
5176;DHT22;2607;50.934;6.934;2023-07-13T06:12:32;18.50;99.20
5176;DHT22;2607;50.934;6.934;2023-07-13T06:14:58;18.50;99.40
5176;DHT22;2607;50.934;6.934;2023-07-13T06:17:23;18.60;99.40
5176;DHT22;2607;50.934;6.934;2023-07-13T06:19:49;18.60;99.60
5176;DHT22;2607;50.934;6.934;2023-07-13T06:22:15;18.60;99.70
5176;DHT22;2607;50.934;6.934;2023-07-13T06:24:40;18.60;99.60
5176;DHT22;2607;50.934;6.934;2023-07-13T06:27:06;18.60;99.50
5176;DHT22;2607;50.934;6.934;2023-07-13T06:29:32;18.60;99.60
5176;DHT22;2607;50.934;6.934;2023-07-13T06:31:58;18.60;99.80
5176;DHT22;2607;50.934;6.934;2023-07-13T06:34:23;18.60;99.90
5176;DHT22;2607;50.934;6.934;2023-07-13T06:36:49;18.60;99.90
5176;DHT22;2607;50.934;6.934;2023-07-13T06:42:36;18.70;99.90
5176;DHT22;2607;50.934;6.934;2023-07-13T06:45:04;18.60;99.90
5176;DHT22;2607;50.934;6.934;2023-07-13T06:47:29;18.60;99.90
5176;DHT22;2607;50.934;6.934;2023-07-13T06:49:55;18.70;99.90
5176;DHT22;2607;50.934;6.934;2023-07-13T06:52:21;18.70;99.90
5176;DHT22;2607;50.934;6.934;2023-07-13T06:54:46;18.70;99.90
5176;DHT22;2607;50.934;6.934;2023-07-13T06:57:12;18.80;99.90
5176;DHT22;2607;50.934;6.934;2023-07-13T06:59:37;18.80;99.90
5176;DHT22;2607;50.934;6.934;2023-07-13T07:02:03;18.80;99.90
5176;DHT22;2607;50.934;6.934;2023-07-13T07:04:29;18.80;99.90
5176;DHT22;2607;50.934;6.934;2023-07-13T07:06:54;18.90;99.90
5176;DHT22;2607;50.934;6.934;2023-07-13T07:09:20;18.90;99.90
5176;DHT22;2607;50.934;6.934;2023-07-13T07:11:46;18.90;99.90
5176;DHT22;2607;50.934;6.934;2023-07-13T07:14:11;18.90;99.90
5176;DHT22;2607;50.934;6.934;2023-07-13T07:16:37;18.90;99.90
5176;DHT22;2607;50.934;6.934;2023-07-13T07:19:02;18.90;99.90
5176;DHT22;2607;50.934;6.934;2023-07-13T07:21:28;19.00;99.90
5176;DHT22;2607;50.934;6.934;2023-07-13T07:23:53;19.10;99.80
5176;DHT22;2607;50.934;6.934;2023-07-13T07:26:19;19.10;99.80
5176;DHT22;2607;50.934;6.934;2023-07-13T07:28:45;19.20;99.70
5176;DHT22;2607;50.934;6.934;2023-07-13T07:31:11;19.20;99.70
5176;DHT22;2607;50.934;6.934;2023-07-13T07:33:36;19.20;99.70
5176;DHT22;2607;50.934;6.934;2023-07-13T07:36:02;19.30;99.70
5176;DHT22;2607;50.934;6.934;2023-07-13T07:38:28;19.40;99.40
5176;DHT22;2607;50.934;6.934;2023-07-13T07:40:54;19.50;99.40
5176;DHT22;2607;50.934;6.934;2023-07-13T07:43:19;19.60;99.20
5176;DHT22;2607;50.934;6.934;2023-07-13T07:45:45;19.60;99.10
5176;DHT22;2607;50.934;6.934;2023-07-13T07:48:11;19.80;98.90
5176;DHT22;2607;50.934;6.934;2023-07-13T07:50:37;19.90;98.50
5176;DHT22;2607;50.934;6.934;2023-07-13T07:53:05;20.00;98.40
5176;DHT22;2607;50.934;6.934;2023-07-13T07:55:33;20.00;98.00
5176;DHT22;2607;50.934;6.934;2023-07-13T07:58:00;20.10;97.80
5176;DHT22;2607;50.934;6.934;2023-07-13T08:00:25;20.20;97.70
5176;DHT22;2607;50.934;6.934;2023-07-13T08:02:52;20.30;97.90
5176;DHT22;2607;50.934;6.934;2023-07-13T08:05:17;20.40;97.30
5176;DHT22;2607;50.934;6.934;2023-07-13T08:07:43;20.40;97.30
5176;DHT22;2607;50.934;6.934;2023-07-13T08:10:09;20.50;97.30
5176;DHT22;2607;50.934;6.934;2023-07-13T08:12:36;20.50;97.10
5176;DHT22;2607;50.934;6.934;2023-07-13T08:15:02;20.60;96.90
5176;DHT22;2607;50.934;6.934;2023-07-13T08:17:28;20.70;96.80
5176;DHT22;2607;50.934;6.934;2023-07-13T08:19:53;20.70;97.20
5176;DHT22;2607;50.934;6.934;2023-07-13T08:22:19;20.80;96.50
5176;DHT22;2607;50.934;6.934;2023-07-13T08:24:45;20.90;96.50
5176;DHT22;2607;50.934;6.934;2023-07-13T08:27:11;20.90;96.30
5176;DHT22;2607;50.934;6.934;2023-07-13T08:29:37;20.90;96.30
5176;DHT22;2607;50.934;6.934;2023-07-13T08:32:05;20.90;96.20
5176;DHT22;2607;50.934;6.934;2023-07-13T08:34:31;21.00;96.10
5176;DHT22;2607;50.934;6.934;2023-07-13T08:36:56;21.00;95.60
5176;DHT22;2607;50.934;6.934;2023-07-13T08:39:22;21.00;95.60
5176;DHT22;2607;50.934;6.934;2023-07-13T08:41:51;21.00;95.50
5176;DHT22;2607;50.934;6.934;2023-07-13T08:47:09;21.10;95.30
5176;DHT22;2607;50.934;6.934;2023-07-13T08:49:35;21.10;95.10
5176;DHT22;2607;50.934;6.934;2023-07-13T08:54:45;21.20;95.00
5176;DHT22;2607;50.934;6.934;2023-07-13T08:57:18;21.40;94.80
5176;DHT22;2607;50.934;6.934;2023-07-13T08:59:45;21.40;94.50
5176;DHT22;2607;50.934;6.934;2023-07-13T09:05:03;21.50;94.40
5176;DHT22;2607;50.934;6.934;2023-07-13T09:07:41;21.50;94.30
5176;DHT22;2607;50.934;6.934;2023-07-13T09:10:27;21.50;93.90
5176;DHT22;2607;50.934;6.934;2023-07-13T09:15:44;21.40;93.80
5176;DHT22;2607;50.934;6.934;2023-07-13T09:18:25;21.50;93.80
5176;DHT22;2607;50.934;6.934;2023-07-13T09:20:59;21.50;93.80
5176;DHT22;2607;50.934;6.934;2023-07-13T09:23:28;21.50;93.50
5176;DHT22;2607;50.934;6.934;2023-07-13T09:26:04;21.60;93.70
5176;DHT22;2607;50.934;6.934;2023-07-13T09:28:40;21.60;93.70
5176;DHT22;2607;50.934;6.934;2023-07-13T09:31:20;21.70;93.70
5176;DHT22;2607;50.934;6.934;2023-07-13T09:33:48;21.80;93.20
5176;DHT22;2607;50.934;6.934;2023-07-13T09:36:25;21.80;92.90
5176;DHT22;2607;50.934;6.934;2023-07-13T09:39:02;21.80;92.70
5176;DHT22;2607;50.934;6.934;2023-07-13T09:44:26;21.90;92.50
5176;DHT22;2607;50.934;6.934;2023-07-13T09:46:55;21.90;92.20
5176;DHT22;2607;50.934;6.934;2023-07-13T09:49:24;22.00;91.90
5176;DHT22;2607;50.934;6.934;2023-07-13T09:51:58;22.00;92.20
5176;DHT22;2607;50.934;6.934;2023-07-13T09:54:26;22.10;92.10
5176;DHT22;2607;50.934;6.934;2023-07-13T09:56:59;22.20;91.60
5176;DHT22;2607;50.934;6.934;2023-07-13T09:59:34;22.40;91.40
5176;DHT22;2607;50.934;6.934;2023-07-13T10:02:00;22.50;91.30
5176;DHT22;2607;50.934;6.934;2023-07-13T10:04:32;22.50;90.50
5176;DHT22;2607;50.934;6.934;2023-07-13T10:07:08;22.50;90.30
5176;DHT22;2607;50.934;6.934;2023-07-13T10:09:35;22.60;90.40
5176;DHT22;2607;50.934;6.934;2023-07-13T10:12:00;22.70;88.20
5176;DHT22;2607;50.934;6.934;2023-07-13T10:14:27;22.70;87.30
5176;DHT22;2607;50.934;6.934;2023-07-13T10:16:58;22.70;87.30
5176;DHT22;2607;50.934;6.934;2023-07-13T10:19:31;22.70;87.40
5176;DHT22;2607;50.934;6.934;2023-07-13T10:24:33;23.00;87.30
5176;DHT22;2607;50.934;6.934;2023-07-13T10:29:42;23.30;86.20
5176;DHT22;2607;50.934;6.934;2023-07-13T10:32:13;23.40;85.50
5176;DHT22;2607;50.934;6.934;2023-07-13T10:34:43;23.50;84.80
5176;DHT22;2607;50.934;6.934;2023-07-13T10:37:18;23.50;84.70
5176;DHT22;2607;50.934;6.934;2023-07-13T10:39:46;23.50;84.50
5176;DHT22;2607;50.934;6.934;2023-07-13T10:42:15;23.50;84.10
5176;DHT22;2607;50.934;6.934;2023-07-13T10:44:43;23.60;84.50
5176;DHT22;2607;50.934;6.934;2023-07-13T10:47:16;23.70;84.90
5176;DHT22;2607;50.934;6.934;2023-07-13T10:49:44;23.80;84.00
5176;DHT22;2607;50.934;6.934;2023-07-13T10:55:35;23.90;84.80
5176;DHT22;2607;50.934;6.934;2023-07-13T10:58:24;24.10;84.30
5176;DHT22;2607;50.934;6.934;2023-07-13T11:03:23;24.40;82.00
5176;DHT22;2607;50.934;6.934;2023-07-13T11:06:08;24.50;81.40
5176;DHT22;2607;50.934;6.934;2023-07-13T11:08:38;24.40;81.20
5176;DHT22;2607;50.934;6.934;2023-07-13T11:13:58;24.10;81.50
5176;DHT22;2607;50.934;6.934;2023-07-13T11:19:37;23.90;82.80
5176;DHT22;2607;50.934;6.934;2023-07-13T11:22:11;23.70;83.20
5176;DHT22;2607;50.934;6.934;2023-07-13T11:24:59;23.60;83.70
5176;DHT22;2607;50.934;6.934;2023-07-13T11:27:38;23.60;84.60
5176;DHT22;2607;50.934;6.934;2023-07-13T11:30:24;23.60;84.60
5176;DHT22;2607;50.934;6.934;2023-07-13T11:33:25;23.70;84.70
5176;DHT22;2607;50.934;6.934;2023-07-13T11:36:04;24.00;81.00
5176;DHT22;2607;50.934;6.934;2023-07-13T11:43:40;23.80;80.70
5176;DHT22;2607;50.934;6.934;2023-07-13T11:46:22;23.70;81.30
5176;DHT22;2607;50.934;6.934;2023-07-13T11:48:49;23.70;82.00
5176;DHT22;2607;50.934;6.934;2023-07-13T11:51:31;23.60;82.50
5176;DHT22;2607;50.934;6.934;2023-07-13T11:54:03;23.50;83.00
5176;DHT22;2607;50.934;6.934;2023-07-13T11:56:29;23.60;83.50
5176;DHT22;2607;50.934;6.934;2023-07-13T11:58:56;23.60;83.70
5176;DHT22;2607;50.934;6.934;2023-07-13T12:01:29;23.60;83.50
5176;DHT22;2607;50.934;6.934;2023-07-13T12:04:00;23.70;83.60
5176;DHT22;2607;50.934;6.934;2023-07-13T12:06:33;23.70;83.60
5176;DHT22;2607;50.934;6.934;2023-07-13T12:09:08;23.70;83.10
5176;DHT22;2607;50.934;6.934;2023-07-13T12:11:39;23.70;82.50
5176;DHT22;2607;50.934;6.934;2023-07-13T12:14:05;23.80;82.50
5176;DHT22;2607;50.934;6.934;2023-07-13T12:16:33;23.70;80.40
5176;DHT22;2607;50.934;6.934;2023-07-13T12:19:02;23.70;80.30
5176;DHT22;2607;50.934;6.934;2023-07-13T12:21:38;23.70;81.10
5176;DHT22;2607;50.934;6.934;2023-07-13T12:24:04;23.60;80.70
5176;DHT22;2607;50.934;6.934;2023-07-13T12:26:31;23.60;80.10
5176;DHT22;2607;50.934;6.934;2023-07-13T12:29:00;23.60;80.00
5176;DHT22;2607;50.934;6.934;2023-07-13T12:31:56;23.60;80.00
5176;DHT22;2607;50.934;6.934;2023-07-13T12:34:24;23.70;79.90
5176;DHT22;2607;50.934;6.934;2023-07-13T12:36:53;23.80;79.80
5176;DHT22;2607;50.934;6.934;2023-07-13T12:39:34;24.00;79.30
5176;DHT22;2607;50.934;6.934;2023-07-13T12:44:53;24.40;78.60
5176;DHT22;2607;50.934;6.934;2023-07-13T12:47:20;24.40;77.20
5176;DHT22;2607;50.934;6.934;2023-07-13T12:49:53;24.40;77.60
5176;DHT22;2607;50.934;6.934;2023-07-13T12:52:28;24.30;76.70
5176;DHT22;2607;50.934;6.934;2023-07-13T12:54:58;24.30;76.90
5176;DHT22;2607;50.934;6.934;2023-07-13T12:57:24;24.20;76.90
5176;DHT22;2607;50.934;6.934;2023-07-13T12:59:54;24.10;76.70
5176;DHT22;2607;50.934;6.934;2023-07-13T13:02:29;24.10;76.90
5176;DHT22;2607;50.934;6.934;2023-07-13T13:04:57;24.00;77.20
5176;DHT22;2607;50.934;6.934;2023-07-13T13:07:24;24.00;77.30
5176;DHT22;2607;50.934;6.934;2023-07-13T13:09:50;24.00;77.50
5176;DHT22;2607;50.934;6.934;2023-07-13T13:12:15;24.10;77.40
5176;DHT22;2607;50.934;6.934;2023-07-13T13:14:42;24.10;76.90
5176;DHT22;2607;50.934;6.934;2023-07-13T13:17:23;24.30;77.10
5176;DHT22;2607;50.934;6.934;2023-07-13T13:19:50;24.40;75.50
5176;DHT22;2607;50.934;6.934;2023-07-13T13:22:18;24.40;75.60
5176;DHT22;2607;50.934;6.934;2023-07-13T13:24:43;24.50;75.40
5176;DHT22;2607;50.934;6.934;2023-07-13T13:27:15;24.60;74.30
5176;DHT22;2607;50.934;6.934;2023-07-13T13:29:42;24.60;73.30
5176;DHT22;2607;50.934;6.934;2023-07-13T13:32:12;24.70;73.20
5176;DHT22;2607;50.934;6.934;2023-07-13T13:34:38;24.80;73.10
5176;DHT22;2607;50.934;6.934;2023-07-13T13:37:11;25.10;71.60
5176;DHT22;2607;50.934;6.934;2023-07-13T13:39:44;25.10;71.80
5176;DHT22;2607;50.934;6.934;2023-07-13T13:42:10;25.20;71.10
5176;DHT22;2607;50.934;6.934;2023-07-13T13:44:36;25.30;71.10
5176;DHT22;2607;50.934;6.934;2023-07-13T13:47:01;25.40;70.70
5176;DHT22;2607;50.934;6.934;2023-07-13T13:49:29;25.50;70.70
5176;DHT22;2607;50.934;6.934;2023-07-13T13:51:56;25.50;70.60
5176;DHT22;2607;50.934;6.934;2023-07-13T13:54:23;25.50;70.50
5176;DHT22;2607;50.934;6.934;2023-07-13T13:56:50;25.50;70.20
5176;DHT22;2607;50.934;6.934;2023-07-13T13:59:17;25.60;69.50
5176;DHT22;2607;50.934;6.934;2023-07-13T14:01:45;25.60;69.80
5176;DHT22;2607;50.934;6.934;2023-07-13T14:04:16;25.50;69.90
5176;DHT22;2607;50.934;6.934;2023-07-13T14:06:43;25.60;69.50
5176;DHT22;2607;50.934;6.934;2023-07-13T14:09:13;25.70;69.90
5176;DHT22;2607;50.934;6.934;2023-07-13T14:11:41;25.60;68.90
5176;DHT22;2607;50.934;6.934;2023-07-13T14:14:17;25.60;69.30
5176;DHT22;2607;50.934;6.934;2023-07-13T14:16:44;25.50;69.50
5176;DHT22;2607;50.934;6.934;2023-07-13T14:19:14;25.50;69.70
5176;DHT22;2607;50.934;6.934;2023-07-13T14:21:41;25.40;69.80
5176;DHT22;2607;50.934;6.934;2023-07-13T14:24:06;25.40;69.70
5176;DHT22;2607;50.934;6.934;2023-07-13T14:26:38;25.30;68.90
5176;DHT22;2607;50.934;6.934;2023-07-13T14:29:11;25.30;69.30
5176;DHT22;2607;50.934;6.934;2023-07-13T14:31:37;25.30;69.60
5176;DHT22;2607;50.934;6.934;2023-07-13T14:34:03;25.30;69.30
5176;DHT22;2607;50.934;6.934;2023-07-13T14:36:35;25.20;69.30
5176;DHT22;2607;50.934;6.934;2023-07-13T14:39:20;25.30;69.10
5176;DHT22;2607;50.934;6.934;2023-07-13T14:41:53;25.30;69.40
5176;DHT22;2607;50.934;6.934;2023-07-13T14:44:25;25.30;69.40
5176;DHT22;2607;50.934;6.934;2023-07-13T14:46:52;25.40;69.10
5176;DHT22;2607;50.934;6.934;2023-07-13T14:52:00;25.40;69.10
5176;DHT22;2607;50.934;6.934;2023-07-13T14:54:27;25.30;68.80
5176;DHT22;2607;50.934;6.934;2023-07-13T14:56:52;25.30;68.10
5176;DHT22;2607;50.934;6.934;2023-07-13T14:59:18;25.30;68.30
5176;DHT22;2607;50.934;6.934;2023-07-13T15:01:45;25.30;68.40
5176;DHT22;2607;50.934;6.934;2023-07-13T15:04:12;25.30;68.70
5176;DHT22;2607;50.934;6.934;2023-07-13T15:06:55;25.40;68.80
5176;DHT22;2607;50.934;6.934;2023-07-13T15:09:21;25.40;69.00
5176;DHT22;2607;50.934;6.934;2023-07-13T15:11:47;25.40;69.00
5176;DHT22;2607;50.934;6.934;2023-07-13T15:14:12;25.30;69.10
5176;DHT22;2607;50.934;6.934;2023-07-13T15:16:38;25.40;67.70
5176;DHT22;2607;50.934;6.934;2023-07-13T15:19:03;25.40;67.50
5176;DHT22;2607;50.934;6.934;2023-07-13T15:21:29;25.30;66.50
5176;DHT22;2607;50.934;6.934;2023-07-13T15:24:00;25.30;66.10
5176;DHT22;2607;50.934;6.934;2023-07-13T15:26:26;25.20;66.00
5176;DHT22;2607;50.934;6.934;2023-07-13T15:28:51;25.10;65.90
5176;DHT22;2607;50.934;6.934;2023-07-13T15:31:25;25.10;66.20
5176;DHT22;2607;50.934;6.934;2023-07-13T15:33:53;25.00;66.60
5176;DHT22;2607;50.934;6.934;2023-07-13T15:36:21;25.00;67.20
5176;DHT22;2607;50.934;6.934;2023-07-13T15:38:48;25.00;67.70
5176;DHT22;2607;50.934;6.934;2023-07-13T15:43:50;24.80;68.90
5176;DHT22;2607;50.934;6.934;2023-07-13T15:46:18;24.80;69.30
5176;DHT22;2607;50.934;6.934;2023-07-13T15:48:45;24.80;69.90
5176;DHT22;2607;50.934;6.934;2023-07-13T15:53:47;24.70;70.20
5176;DHT22;2607;50.934;6.934;2023-07-13T15:56:21;24.80;70.20
5176;DHT22;2607;50.934;6.934;2023-07-13T15:58:48;24.70;70.10
5176;DHT22;2607;50.934;6.934;2023-07-13T16:01:14;24.60;70.40
5176;DHT22;2607;50.934;6.934;2023-07-13T16:03:40;24.60;71.80
5176;DHT22;2607;50.934;6.934;2023-07-13T16:06:17;24.50;73.00
5176;DHT22;2607;50.934;6.934;2023-07-13T16:08:44;24.30;74.20
5176;DHT22;2607;50.934;6.934;2023-07-13T16:11:23;24.20;75.30
5176;DHT22;2607;50.934;6.934;2023-07-13T16:13:49;24.20;76.90
5176;DHT22;2607;50.934;6.934;2023-07-13T16:16:21;24.10;78.00
5176;DHT22;2607;50.934;6.934;2023-07-13T16:18:51;24.10;79.60
5176;DHT22;2607;50.934;6.934;2023-07-13T16:21:19;23.90;81.20
5176;DHT22;2607;50.934;6.934;2023-07-13T16:23:45;23.80;81.20
5176;DHT22;2607;50.934;6.934;2023-07-13T16:26:27;23.70;82.00
5176;DHT22;2607;50.934;6.934;2023-07-13T16:28:54;23.70;82.40
5176;DHT22;2607;50.934;6.934;2023-07-13T16:31:31;23.60;82.70
5176;DHT22;2607;50.934;6.934;2023-07-13T16:33:57;23.60;82.20
5176;DHT22;2607;50.934;6.934;2023-07-13T16:36:25;23.50;82.10
5176;DHT22;2607;50.934;6.934;2023-07-13T16:38:50;23.50;82.30
5176;DHT22;2607;50.934;6.934;2023-07-13T16:41:16;23.40;82.30
5176;DHT22;2607;50.934;6.934;2023-07-13T16:43:42;23.40;82.60
5176;DHT22;2607;50.934;6.934;2023-07-13T16:46:12;23.40;83.10
5176;DHT22;2607;50.934;6.934;2023-07-13T16:48:40;23.30;83.50
5176;DHT22;2607;50.934;6.934;2023-07-13T16:51:07;23.20;83.50
5176;DHT22;2607;50.934;6.934;2023-07-13T16:53:33;23.20;84.00
5176;DHT22;2607;50.934;6.934;2023-07-13T16:56:00;23.10;84.10
5176;DHT22;2607;50.934;6.934;2023-07-13T16:58:28;23.20;84.40
5176;DHT22;2607;50.934;6.934;2023-07-13T17:00:58;23.10;84.70